^^
Station Historical Data
Daily Summary for October 19, 2017 Units:  English    Metric   Both
« Previous Day
Next Day »
Daily Weekly Monthly Yearly Custom
  High: Low: Average:
Temperature: 70.8 °F 46.9 °F 61.2 °F
Dew Point: 50.8 °F 43.7 °F 47.1 °F
Humidity: 96% 38% 63%
Wind Speed: 7.0mph 0.0mph 2.3mph
Wind Gust: 15.0mph - -
Wind- - SSW
Pressure: 30.28 in 30.08 in -
Precipitation: 0.00 in    
Historical Graphs
 
 
Tabular Data for October 19, 2017
Time Temperature Dew Point Pressure Wind Wind Speed Wind Gust Humidity Rainfall Rate (Hourly) Conditions
00:00 55.6 °F 48.2 °F 30.28 in Calm     76% 0.00 in CLR
00:10 54.7 °F 47.9 °F 30.28 in Calm     78% 0.00 in CLR
00:20 54.0 °F 48.0 °F 30.28 in Calm     80% 0.00 in CLR
00:30 54.9 °F 48.5 °F 30.28 in Calm   2.0 mph 79% 0.00 in CLR
00:40 55.6 °F 48.5 °F 30.28 in Calm     77% 0.00 in CLR
00:50 55.5 °F 48.4 °F 30.28 in Calm     77% 0.00 in CLR
01:00 55.0 °F 48.3 °F 30.28 in Calm     78% 0.00 in CLR
01:10 54.8 °F 48.4 °F 30.28 in Calm     79% 0.00 in CLR
01:20 54.7 °F 48.3 °F 30.28 in Calm     79% 0.00 in CLR
01:30 54.2 °F 48.2 °F 30.28 in Calm     80% 0.00 in CLR
01:40 53.6 °F 47.9 °F 30.28 in Calm     81% 0.00 in CLR
01:50 53.3 °F 48.3 °F 30.27 in Calm     83% 0.00 in CLR
02:00 53.2 °F 48.2 °F 30.27 in Calm     83% 0.00 in CLR
02:10 52.5 °F 47.5 °F 30.27 in Calm     83% 0.00 in CLR
02:20 52.2 °F 47.8 °F 30.27 in Calm     85% 0.00 in CLR
02:30 52.1 °F 47.7 °F 30.27 in Calm     85% 0.00 in CLR
06:20 47.9 °F 45.9 °F 30.26 in Calm     93% 0.00 in CLR
06:30 47.8 °F 45.9 °F 30.26 in Calm     93% 0.00 in CLR
06:40 47.7 °F 46.1 °F 30.26 in Calm     94% 0.00 in CLR
06:50 47.8 °F 46.2 °F 30.26 in Calm     94% 0.00 in CLR
07:00 47.1 °F 45.2 °F 30.26 in Calm     93% 0.00 in CLR
07:10 46.9 °F 45.3 °F 30.25 in Calm     94% 0.00 in CLR
07:20 47.5 °F 46.1 °F 30.25 in Calm     95% 0.00 in CLR
07:30 47.3 °F 45.9 °F 30.25 in Calm     95% 0.00 in CLR
07:40 47.3 °F 45.9 °F 30.25 in Calm     95% 0.00 in CLR
07:50 47.6 °F 46.3 °F 30.25 in Calm     95% 0.00 in CLR
08:00 48.0 °F 46.9 °F 30.26 in Calm     96% 0.00 in CLR
08:10 48.1 °F 47.0 °F 30.25 in Calm     96% 0.00 in CLR
08:20 48.7 °F 47.6 °F 30.26 in Calm     96% 0.00 in CLR
08:30 50.2 °F 49.1 °F 30.26 in SSW 1.0 mph 3.0 mph 96% 0.00 in CLR
08:40 52.0 °F 49.2 °F 30.26 in SSW 1.0 mph 3.0 mph 90% 0.00 in CLR
08:50 53.0 °F 48.9 °F 30.26 in South 1.0 mph 4.0 mph 86% 0.00 in CLR
09:00 53.6 °F 48.9 °F 30.26 in Calm   3.0 mph 84% 0.00 in CLR
09:10 54.1 °F 49.4 °F 30.26 in SSW 1.0 mph 3.0 mph 84% 0.00 in CLR
09:20 54.6 °F 49.5 °F 30.26 in Calm   2.0 mph 83% 0.00 in CLR
09:30 55.6 °F 50.6 °F 30.25 in Calm   3.0 mph 83% 0.00 in CLR
09:40 57.3 °F 50.8 °F 30.25 in Calm   4.0 mph 79% 0.00 in CLR
09:50 58.4 °F 50.1 °F 30.25 in SSW 1.0 mph 7.0 mph 74% 0.00 in CLR
10:00 59.6 °F 49.8 °F 30.25 in South 2.0 mph 5.0 mph 70% 0.00 in CLR
10:10 60.2 °F 49.2 °F 30.25 in SW 1.0 mph 7.0 mph 67% 0.00 in FEW
10:20 60.9 °F 48.7 °F 30.25 in South 2.0 mph 8.0 mph 64% 0.00 in FEW
10:30 61.5 °F 48.8 °F 30.25 in SW 2.0 mph 8.0 mph 63% 0.00 in FEW
10:40 62.2 °F 48.5 °F 30.24 in SSW 2.0 mph 9.0 mph 61% 0.00 in FEW
10:50 62.5 °F 48.9 °F 30.24 in SW 5.0 mph 10.0 mph 61% 0.00 in FEW
11:00 62.7 °F 49.5 °F 30.24 in SW 3.0 mph 10.0 mph 62% 0.00 in FEW
11:10 63.0 °F 48.4 °F 30.24 in SW 3.0 mph 12.0 mph 59% 0.00 in CLR
11:20 63.8 °F 48.7 °F 30.23 in SSW 3.0 mph 10.0 mph 58% 0.00 in CLR
11:30 64.2 °F 48.2 °F 30.23 in SSW 3.0 mph 10.0 mph 56% 0.00 in CLR
11:40 64.4 °F 48.8 °F 30.23 in SW 3.0 mph 13.0 mph 57% 0.00 in CLR
11:50 64.5 °F 48.4 °F 30.23 in SW 5.0 mph 10.0 mph 56% 0.00 in CLR
12:00 65.5 °F 47.4 °F 30.22 in SW 5.0 mph 14.0 mph 52% 0.00 in CLR
12:10 66.1 °F 46.4 °F 30.22 in South 6.0 mph 12.0 mph 49% 0.00 in CLR
12:20 66.8 °F 47.6 °F 30.21 in SSW 5.0 mph 9.0 mph 50% 0.00 in CLR
12:30 67.1 °F 46.7 °F 30.20 in SSW 5.0 mph 10.0 mph 48% 0.00 in CLR
12:40 67.1 °F 46.7 °F 30.20 in SW 5.0 mph 13.0 mph 48% 0.00 in CLR
12:50 67.7 °F 46.7 °F 30.19 in SSW 3.0 mph 12.0 mph 47% 0.00 in CLR
13:00 67.8 °F 46.3 °F 30.18 in SW 5.0 mph 10.0 mph 46% 0.00 in CLR
13:10 68.0 °F 46.4 °F 30.18 in SSW 5.0 mph 12.0 mph 46% 0.00 in CLR
13:20 67.9 °F 46.4 °F 30.18 in SSW 3.0 mph 12.0 mph 46% 0.00 in CLR
13:30 68.2 °F 46.6 °F 30.17 in SSW 2.0 mph 12.0 mph 46% 0.00 in CLR
13:40 68.7 °F 47.1 °F 30.16 in SW 5.0 mph 8.0 mph 46% 0.00 in CLR
13:50 68.8 °F 46.6 °F 30.16 in SW 1.0 mph 12.0 mph 45% 0.00 in CLR
14:00 69.4 °F 46.5 °F 30.15 in SSW 3.0 mph 9.0 mph 44% 0.00 in CLR
14:10 69.8 °F 46.3 °F 30.15 in SSW 3.0 mph 10.0 mph 43% 0.00 in CLR
14:20 69.7 °F 45.6 °F 30.14 in SW 5.0 mph 12.0 mph 42% 0.00 in CLR
14:30 69.7 °F 44.9 °F 30.13 in SW 3.0 mph 14.0 mph 41% 0.00 in CLR
14:40 69.9 °F 44.5 °F 30.13 in South 5.0 mph 14.0 mph 40% 0.00 in CLR
14:50 70.2 °F 45.4 °F 30.12 in SSW 5.0 mph 12.0 mph 41% 0.00 in CLR
15:00 70.0 °F 44.6 °F 30.12 in South 6.0 mph 12.0 mph 40% 0.00 in CLR
15:10 70.2 °F 45.4 °F 30.12 in SSW 5.0 mph 12.0 mph 41% 0.00 in CLR
15:20 70.4 °F 44.9 °F 30.12 in SSW 5.0 mph 10.0 mph 40% 0.00 in CLR
15:30 70.4 °F 45.6 °F 30.11 in SSW 3.0 mph 10.0 mph 41% 0.00 in CLR
15:40 70.5 °F 45.0 °F 30.11 in SSW 5.0 mph 12.0 mph 40% 0.00 in CLR
15:50 70.8 °F 45.3 °F 30.11 in SW 6.0 mph 10.0 mph 40% 0.00 in CLR
16:00 70.2 °F 44.1 °F 30.11 in SSW 6.0 mph 12.0 mph 39% 0.00 in CLR
16:10 70.4 °F 44.2 °F 30.10 in SSW 3.0 mph 12.0 mph 39% 0.00 in CLR
16:20 70.7 °F 44.5 °F 30.09 in SW 2.0 mph 8.0 mph 39% 0.00 in CLR
16:30 70.6 °F 43.7 °F 30.09 in SSW 5.0 mph 12.0 mph 38% 0.00 in CLR
16:40 70.5 °F 43.7 °F 30.09 in SSW 7.0 mph 13.0 mph 38% 0.00 in CLR
16:50 70.5 °F 43.7 °F 30.09 in SW 3.0 mph 12.0 mph 38% 0.00 in CLR
17:00 70.2 °F 44.7 °F 30.09 in SW 3.0 mph 14.0 mph 40% 0.00 in CLR
17:10 70.2 °F 44.8 °F 30.08 in SSW 3.0 mph 9.0 mph 40% 0.00 in CLR
17:20 69.8 °F 44.4 °F 30.09 in SW 3.0 mph 10.0 mph 40% 0.00 in CLR
17:30 69.7 °F 44.3 °F 30.08 in SSW 1.0 mph 7.0 mph 40% 0.00 in CLR
17:39 69.4 °F 45.3 °F 30.08 in SW 1.0 mph 7.0 mph 42% 0.00 in
17:59 66.9 °F 46.0 °F 30.08 in Calm   7.0 mph 47% 0.00 in
18:20 65.5 °F 46.4 °F 30.08 in SSW 3.0 mph 6.0 mph 50% 0.00 in CLR
18:30 65.1 °F 47.0 °F 30.08 in South 2.0 mph 6.0 mph 52% 0.00 in CLR
18:40 64.8 °F 46.7 °F 30.08 in SSW 2.0 mph 7.0 mph 52% 0.00 in CLR
18:50 64.5 °F 46.5 °F 30.08 in SSW 3.0 mph 6.0 mph 52% 0.00 in CLR
19:00 64.2 °F 46.7 °F 30.09 in SSW 2.0 mph 7.0 mph 53% 0.00 in CLR
19:10 64.1 °F 46.6 °F 30.10 in SSW 2.0 mph 9.0 mph 53% 0.00 in CLR
19:20 63.9 °F 46.4 °F 30.09 in SSW 5.0 mph 12.0 mph 53% 0.00 in CLR
19:30 64.0 °F 46.5 °F 30.09 in SW 5.0 mph 10.0 mph 53% 0.00 in CLR
19:40 64.0 °F 47.0 °F 30.09 in SSE 3.0 mph 9.0 mph 54% 0.00 in CLR
19:50 64.1 °F 47.1 °F 30.09 in SSW 5.0 mph 10.0 mph 54% 0.00 in CLR
20:00 64.1 °F 46.6 °F 30.09 in SSW 5.0 mph 12.0 mph 53% 0.00 in CLR
20:10 63.9 °F 46.9 °F 30.09 in SSW 3.0 mph 12.0 mph 54% 0.00 in CLR
20:20 63.9 °F 46.9 °F 30.09 in SSW 3.0 mph 15.0 mph 54% 0.00 in CLR
20:30 63.7 °F 47.2 °F 30.09 in SW 5.0 mph 10.0 mph 55% 0.00 in CLR
20:40 63.8 °F 47.3 °F 30.09 in SW 6.0 mph 13.0 mph 55% 0.00 in CLR
20:50 63.5 °F 47.6 °F 30.09 in SSW 2.0 mph 10.0 mph 56% 0.00 in CLR
21:00 63.5 °F 47.5 °F 30.09 in SW 7.0 mph 13.0 mph 56% 0.00 in CLR
21:10 63.4 °F 47.4 °F 30.09 in SW 3.0 mph 8.0 mph 56% 0.00 in CLR
21:20 63.0 °F 47.6 °F 30.09 in SW 3.0 mph 10.0 mph 57% 0.00 in CLR
21:30 63.0 °F 48.0 °F 30.10 in SW 3.0 mph 12.0 mph 58% 0.00 in CLR
21:40 62.7 °F 47.7 °F 30.10 in SW 2.0 mph 10.0 mph 58% 0.00 in CLR
21:50 62.5 °F 48.0 °F 30.10 in SSW 2.0 mph 8.0 mph 59% 0.00 in CLR
22:00 62.3 °F 47.8 °F 30.09 in SSW 2.0 mph 12.0 mph 59% 0.00 in CLR
22:10 62.1 °F 47.6 °F 30.09 in SSW 2.0 mph 9.0 mph 59% 0.00 in CLR
22:20 61.9 °F 47.9 °F 30.09 in SW 1.0 mph 6.0 mph 60% 0.00 in CLR
22:30 61.5 °F 47.9 °F 30.09 in WSW 1.0 mph 8.0 mph 61% 0.00 in CLR
22:40 61.1 °F 48.0 °F 30.09 in SW 2.0 mph 6.0 mph 62% 0.00 in CLR
22:50 60.8 °F 47.7 °F 30.09 in SSW 2.0 mph 6.0 mph 62% 0.00 in CLR
23:00 60.6 °F 47.9 °F 30.09 in SSW 1.0 mph 6.0 mph 63% 0.00 in CLR
23:10 60.3 °F 48.1 °F 30.08 in SSW 1.0 mph 4.0 mph 64% 0.00 in CLR
23:20 60.1 °F 47.9 °F 30.09 in SSW 1.0 mph 7.0 mph 64% 0.00 in CLR
23:30 59.9 °F 48.1 °F 30.08 in South 1.0 mph 4.0 mph 65% 0.00 in CLR
23:40 59.9 °F 48.1 °F 30.08 in South 1.0 mph 6.0 mph 65% 0.00 in CLR
23:50 59.7 °F 48.3 °F 30.08 in SW 1.0 mph 4.0 mph 66% 0.00 in CLR
TarryTown NY Weather
Compliments of Weather Underground - 1.5 mb